createdAt,value
2022-11-15T00:03:04.257Z,6.90
2022-11-15T00:06:25.871Z,6.90
2022-11-15T00:09:47.470Z,7.00
2022-11-15T00:13:11.693Z,7.00
2022-11-15T00:16:33.276Z,7.00
2022-11-15T00:19:54.837Z,7.00
2022-11-15T00:23:16.434Z,6.90
2022-11-15T00:26:38.007Z,6.90
2022-11-15T00:30:00.969Z,6.80
2022-11-15T00:33:22.545Z,6.70
2022-11-15T00:36:44.109Z,6.70
2022-11-15T00:40:06.353Z,6.70
2022-11-15T00:43:28.041Z,6.70
2022-11-15T00:46:51.126Z,6.60
2022-11-15T00:50:15.166Z,6.60
2022-11-15T00:53:37.133Z,6.50
2022-11-15T00:56:58.700Z,6.40
2022-11-15T01:00:20.300Z,6.30
2022-11-15T01:03:43.257Z,6.30
2022-11-15T01:07:04.853Z,6.30
2022-11-15T01:10:26.432Z,6.30
2022-11-15T01:13:48.008Z,6.20
2022-11-15T01:17:09.577Z,6.20
2022-11-15T01:20:32.502Z,6.20
2022-11-15T01:23:54.474Z,6.10
2022-11-15T01:27:16.025Z,6.00
2022-11-15T01:30:37.602Z,6.00
2022-11-15T01:33:59.179Z,6.10
2022-11-15T01:37:22.096Z,6.00
2022-11-15T01:40:43.690Z,5.90
2022-11-15T01:44:24.135Z,5.80
2022-11-15T01:47:49.133Z,5.70
2022-11-15T01:51:11.792Z,5.60
2022-11-15T01:54:34.885Z,5.60
2022-11-15T01:57:58.771Z,5.60
2022-11-15T02:01:20.716Z,5.60
2022-11-15T02:04:43.399Z,5.50
2022-11-15T02:08:05.421Z,5.50
2022-11-15T02:11:28.709Z,5.40
2022-11-15T02:14:51.978Z,5.40
2022-11-15T02:18:20.209Z,5.30
2022-11-15T02:21:44.051Z,5.30
2022-11-15T02:25:13.439Z,5.30
2022-11-15T02:28:45.128Z,5.30
2022-11-15T02:32:13.326Z,5.20
2022-11-15T02:35:40.299Z,5.20
2022-11-15T02:39:05.581Z,5.20
2022-11-15T02:42:28.786Z,5.20
2022-11-15T02:45:52.497Z,5.20
2022-11-15T02:49:15.589Z,5.20
2022-11-15T02:52:37.180Z,5.20
2022-11-15T02:55:58.801Z,5.30
2022-11-15T02:59:33.778Z,5.40
2022-11-15T03:03:06.585Z,5.50
2022-11-15T03:06:34.821Z,5.60
2022-11-15T03:10:02.483Z,5.60
2022-11-15T03:13:27.028Z,5.50
2022-11-15T03:16:51.494Z,5.60
2022-11-15T03:20:14.769Z,5.60
2022-11-15T03:23:38.171Z,5.60
2022-11-15T03:27:00.504Z,5.50
2022-11-15T03:30:22.254Z,5.40
2022-11-15T03:33:44.401Z,5.40
2022-11-15T03:37:06.585Z,5.30
2022-11-15T03:40:31.628Z,5.30
2022-11-15T03:43:56.567Z,5.30
2022-11-15T03:47:21.064Z,5.50
2022-11-15T03:50:43.329Z,5.60
2022-11-15T03:54:05.140Z,5.70
2022-11-15T03:57:28.098Z,5.70
2022-11-15T04:00:49.730Z,5.70
2022-11-15T04:04:11.352Z,5.60
2022-11-15T04:07:32.980Z,5.60
2022-11-15T04:10:54.630Z,5.50
2022-11-15T04:14:17.676Z,5.50
2022-11-15T04:17:40.489Z,5.40
2022-11-15T04:21:02.046Z,5.40
2022-11-15T04:24:23.604Z,5.30
2022-11-15T04:27:45.156Z,5.20
2022-11-15T04:31:08.107Z,5.20
2022-11-15T04:34:29.743Z,5.10
2022-11-15T04:37:51.308Z,5.10
2022-11-15T04:41:12.874Z,5.00
2022-11-15T04:44:34.471Z,5.00
2022-11-15T04:47:57.393Z,4.90
2022-11-15T04:51:18.987Z,4.90
2022-11-15T04:54:40.569Z,4.90
2022-11-15T04:58:02.601Z,4.90
2022-11-15T05:01:24.260Z,4.90
2022-11-15T05:04:47.288Z,5.00
2022-11-15T05:08:08.873Z,4.90
2022-11-15T05:11:30.460Z,4.90
2022-11-15T05:14:52.024Z,4.90
2022-11-15T05:18:13.610Z,5.00
2022-11-15T05:21:36.902Z,5.00
2022-11-15T05:24:58.483Z,5.10
2022-11-15T05:28:20.077Z,5.10
2022-11-15T05:31:41.769Z,5.10
2022-11-15T05:35:04.721Z,5.00
2022-11-15T05:38:27.635Z,5.00
2022-11-15T05:41:51.481Z,5.00
2022-11-15T05:45:13.215Z,5.00
2022-11-15T05:48:36.946Z,5.20
2022-11-15T05:51:58.979Z,5.30
2022-11-15T05:58:59.965Z,5.40
2022-11-15T06:02:21.861Z,5.50
2022-11-15T06:05:43.727Z,5.50
2022-11-15T06:09:05.336Z,5.50
2022-11-15T06:12:26.941Z,5.50
2022-11-15T06:15:49.880Z,5.50
2022-11-15T06:19:11.460Z,5.50
2022-11-15T06:22:46.388Z,5.40
2022-11-15T06:26:08.094Z,5.40
2022-11-15T06:29:29.679Z,5.20
2022-11-15T06:32:52.656Z,5.20
2022-11-15T06:36:17.519Z,5.20
2022-11-15T06:39:39.695Z,5.20
2022-11-15T06:43:01.566Z,5.30
2022-11-15T06:46:23.136Z,5.30
2022-11-15T06:49:46.462Z,5.30
2022-11-15T06:53:08.031Z,5.30
2022-11-15T06:56:29.603Z,5.30
2022-11-15T06:59:51.158Z,5.40
2022-11-15T07:03:12.738Z,5.50
2022-11-15T07:06:35.688Z,5.50
2022-11-15T07:09:57.230Z,5.60
2022-11-15T07:13:19.083Z,5.60
2022-11-15T07:16:40.648Z,5.70
2022-11-15T07:20:02.232Z,5.80
2022-11-15T07:23:25.125Z,5.90
2022-11-15T07:26:46.696Z,6.00
2022-11-15T07:30:09.027Z,6.10
2022-11-15T07:33:30.892Z,6.20
2022-11-15T07:36:52.724Z,6.40
2022-11-15T07:40:15.678Z,6.50
2022-11-15T07:43:37.227Z,6.60
2022-11-15T07:46:58.981Z,6.80
2022-11-15T07:50:20.931Z,7.00
2022-11-15T07:53:42.686Z,7.30
2022-11-15T07:57:07.716Z,7.70
2022-11-15T08:00:29.623Z,8.10
2022-11-15T08:03:51.210Z,8.40
2022-11-15T08:07:12.788Z,8.70
2022-11-15T08:10:39.376Z,8.90
2022-11-15T08:14:03.766Z,9.00
2022-11-15T08:17:25.375Z,9.00
2022-11-15T08:20:47.023Z,9.30
2022-11-15T08:24:10.030Z,10.00
2022-11-15T08:27:31.654Z,10.80
2022-11-15T08:30:54.589Z,10.90
2022-11-15T08:34:16.272Z,11.20
2022-11-15T08:37:38.252Z,11.90
2022-11-15T08:41:01.764Z,12.50
2022-11-15T08:44:23.396Z,12.60
2022-11-15T08:47:51.112Z,12.80
2022-11-15T08:51:15.469Z,13.40
2022-11-15T08:54:37.052Z,13.90
2022-11-15T08:57:58.664Z,14.70
2022-11-15T09:01:21.450Z,15.40
2022-11-15T09:04:44.769Z,15.20
2022-11-15T09:08:19.110Z,14.40
2022-11-15T09:11:47.942Z,13.60
2022-11-15T09:15:09.978Z,12.70
2022-11-15T09:18:32.167Z,12.10
2022-11-15T09:21:55.457Z,11.70
2022-11-15T09:25:17.071Z,11.40
2022-11-15T09:28:38.678Z,11.30
2022-11-15T09:32:00.517Z,11.40
2022-11-15T09:35:22.104Z,11.50
2022-11-15T09:38:45.049Z,11.50
2022-11-15T09:42:21.709Z,11.40
2022-11-15T09:45:49.896Z,11.40
2022-11-15T09:49:14.744Z,11.40
2022-11-15T09:52:37.464Z,11.40
2022-11-15T09:56:01.291Z,11.30
2022-11-15T09:59:38.631Z,11.20
2022-11-15T10:03:08.924Z,11.30
2022-11-15T10:06:31.006Z,11.40
2022-11-15T10:09:53.869Z,11.60
2022-11-15T10:13:20.875Z,11.90
2022-11-15T10:16:58.928Z,12.20
2022-11-15T10:20:21.625Z,12.60
2022-11-15T10:23:43.209Z,12.80
2022-11-15T10:27:08.753Z,13.00
2022-11-15T10:30:33.429Z,13.00
2022-11-15T10:34:00.245Z,13.10
2022-11-15T10:37:28.490Z,13.00
2022-11-15T10:41:00.954Z,13.10
2022-11-15T10:44:24.365Z,13.30
2022-11-15T10:47:47.380Z,13.50
2022-11-15T10:51:19.826Z,13.60
2022-11-15T10:54:43.054Z,13.80
2022-11-15T10:58:06.292Z,13.90
2022-11-15T11:01:28.701Z,13.90
2022-11-15T11:04:52.191Z,14.00
2022-11-15T11:08:22.160Z,14.00
2022-11-15T11:11:47.684Z,14.00
2022-11-15T11:15:11.850Z,14.00
2022-11-15T11:18:35.527Z,13.80
2022-11-15T11:22:02.253Z,13.80
2022-11-15T11:25:29.203Z,13.70
2022-11-15T11:28:55.569Z,13.60
2022-11-15T11:32:28.236Z,13.80
2022-11-15T11:35:58.274Z,13.90
2022-11-15T11:39:26.756Z,13.90
2022-11-15T11:42:53.247Z,14.00
2022-11-15T11:46:25.176Z,14.00
2022-11-15T11:49:49.740Z,14.10
2022-11-15T11:53:13.685Z,14.10
2022-11-15T11:56:39.342Z,14.10
2022-11-15T12:00:03.498Z,14.10
2022-11-15T12:03:29.365Z,14.00
2022-11-15T12:06:52.810Z,14.20
2022-11-15T12:10:19.830Z,14.20
2022-11-15T12:13:43.650Z,14.10
2022-11-15T12:17:05.400Z,13.90
2022-11-15T12:20:28.083Z,13.70
2022-11-15T12:23:51.847Z,13.50
2022-11-15T12:27:19.529Z,13.50
2022-11-15T12:30:48.326Z,13.50
2022-11-15T12:34:30.621Z,13.50
2022-11-15T12:37:52.670Z,13.40
2022-11-15T12:41:15.028Z,13.40
2022-11-15T12:44:57.370Z,13.30
2022-11-15T12:48:38.845Z,13.20
2022-11-15T12:52:09.147Z,13.10
2022-11-15T12:55:33.325Z,13.10
2022-11-15T12:58:56.692Z,13.00
2022-11-15T13:02:19.093Z,13.10
2022-11-15T13:06:10.702Z,13.10
2022-11-15T13:09:51.494Z,13.10
2022-11-15T13:13:34.371Z,13.10
2022-11-15T13:16:59.638Z,13.20
2022-11-15T13:20:23.133Z,13.20
2022-11-15T13:23:46.067Z,13.20
2022-11-15T13:27:11.727Z,13.20
2022-11-15T13:30:33.341Z,13.20
2022-11-15T13:33:57.974Z,13.20
2022-11-15T13:37:30.309Z,13.30
2022-11-15T13:40:51.939Z,13.20
2022-11-15T13:44:20.001Z,13.10
2022-11-15T13:47:41.638Z,13.00
2022-11-15T13:51:06.033Z,12.90
2022-11-15T13:54:29.209Z,12.90
2022-11-15T13:57:54.547Z,12.80
2022-11-15T14:01:18.089Z,12.60
2022-11-15T14:04:45.834Z,12.50
2022-11-15T14:08:22.197Z,12.40
2022-11-15T14:11:50.192Z,12.30
2022-11-15T14:15:20.533Z,12.20
2022-11-15T14:18:43.514Z,12.10
2022-11-15T14:22:08.854Z,12.00
2022-11-15T14:25:32.876Z,12.00
2022-11-15T14:28:54.607Z,11.90
2022-11-15T14:32:17.384Z,11.90
2022-11-15T14:35:39.141Z,11.90
2022-11-15T14:39:03.865Z,11.80
2022-11-15T14:42:26.871Z,11.80
2022-11-15T14:45:48.625Z,11.80
2022-11-15T14:49:10.254Z,11.80
2022-11-15T14:52:33.269Z,11.80
2022-11-15T14:55:55.100Z,11.80
2022-11-15T14:59:18.296Z,11.70
2022-11-15T15:02:40.246Z,11.70
2022-11-15T15:06:02.032Z,11.70
2022-11-15T15:09:23.667Z,11.80
2022-11-15T15:12:45.354Z,11.80
2022-11-15T15:16:08.431Z,11.70
2022-11-15T15:19:30.255Z,11.60
2022-11-15T15:22:51.880Z,11.50
2022-11-15T15:26:13.621Z,11.40
2022-11-15T15:29:35.719Z,11.40
2022-11-15T15:32:58.933Z,11.30
2022-11-15T15:36:30.873Z,11.20
2022-11-15T15:39:52.822Z,11.10
2022-11-15T15:43:14.618Z,11.00
2022-11-15T15:46:36.659Z,11.00
2022-11-15T15:50:00.315Z,11.10
2022-11-15T15:53:22.204Z,11.10
2022-11-15T15:56:44.017Z,11.10
2022-11-15T16:00:06.292Z,11.10
2022-11-15T16:03:27.994Z,11.00
2022-11-15T16:06:51.219Z,11.00
2022-11-15T16:10:21.334Z,11.10
2022-11-15T16:13:43.524Z,11.20
2022-11-15T16:17:05.461Z,11.20
2022-11-15T16:20:31.852Z,11.20
2022-11-15T16:23:55.136Z,11.20
2022-11-15T16:27:17.582Z,11.20
2022-11-15T16:30:39.379Z,11.20
2022-11-15T16:34:00.936Z,11.20
2022-11-15T16:37:23.345Z,11.20
2022-11-15T16:40:46.638Z,11.10
2022-11-15T16:44:08.273Z,11.00
2022-11-15T16:47:30.596Z,11.00
2022-11-15T16:50:55.025Z,10.90
2022-11-15T16:54:17.066Z,10.80
2022-11-15T16:57:40.809Z,10.70
2022-11-15T17:01:02.566Z,10.70
2022-11-15T17:04:24.455Z,10.70
2022-11-15T17:07:46.899Z,10.70
2022-11-15T17:11:08.778Z,10.70
2022-11-15T17:14:31.742Z,10.80
2022-11-15T17:17:54.114Z,10.80
2022-11-15T17:21:16.571Z,10.80
2022-11-15T17:24:38.214Z,10.70
2022-11-15T17:28:00.016Z,10.70
2022-11-15T17:31:23.059Z,10.60
2022-11-15T17:34:45.041Z,10.50
2022-11-15T17:38:07.102Z,10.50
2022-11-15T17:41:28.880Z,10.40
2022-11-15T17:44:50.531Z,10.40
2022-11-15T17:48:13.827Z,10.40
2022-11-15T17:51:36.975Z,10.40
2022-11-15T17:54:59.234Z,10.40
2022-11-15T17:58:20.834Z,10.50
2022-11-15T18:01:42.766Z,10.50
2022-11-15T18:05:06.669Z,10.60
2022-11-15T18:08:28.302Z,10.70
2022-11-15T18:15:26.975Z,10.70
2022-11-15T18:18:48.817Z,10.70
2022-11-15T18:22:11.787Z,10.70
2022-11-15T18:25:33.349Z,10.80
2022-11-15T18:28:55.653Z,10.80
2022-11-15T18:32:17.236Z,10.80
2022-11-15T18:35:38.770Z,10.80
2022-11-15T18:39:02.727Z,10.80
2022-11-15T18:42:24.357Z,10.80
2022-11-15T18:45:45.949Z,10.80
2022-11-15T18:49:09.369Z,10.80
2022-11-15T18:52:30.950Z,10.70
2022-11-15T18:55:53.871Z,10.70
2022-11-15T18:59:15.686Z,10.70
2022-11-15T19:02:37.260Z,10.70
2022-11-15T19:06:02.482Z,10.60
2022-11-15T19:09:24.195Z,10.60
2022-11-15T19:12:47.090Z,10.60
2022-11-15T19:16:10.124Z,10.70
2022-11-15T19:19:31.682Z,10.60
2022-11-15T19:22:53.210Z,10.70
2022-11-15T19:26:15.217Z,10.70
2022-11-15T19:29:38.240Z,10.80
2022-11-15T19:32:59.888Z,10.80
2022-11-15T19:36:22.836Z,10.80
2022-11-15T19:39:44.808Z,10.70
2022-11-15T19:43:06.453Z,10.60
2022-11-15T19:46:29.711Z,10.50
2022-11-15T19:49:51.266Z,10.50
2022-11-15T19:53:12.836Z,10.40
2022-11-15T19:56:34.678Z,10.40
2022-11-15T19:59:56.275Z,10.30
2022-11-15T20:03:19.163Z,10.30
2022-11-15T20:06:41.474Z,10.30
2022-11-15T20:10:03.242Z,10.30
2022-11-15T20:13:24.806Z,10.30
2022-11-15T20:16:50.119Z,10.30
2022-11-15T20:20:16.475Z,10.30
2022-11-15T20:23:38.189Z,10.20
2022-11-15T20:27:01.394Z,10.20
2022-11-15T20:30:22.983Z,10.20
2022-11-15T20:33:44.621Z,10.10
2022-11-15T20:37:07.555Z,10.10
2022-11-15T20:40:29.108Z,10.00
2022-11-15T20:43:50.885Z,10.00
2022-11-15T20:47:12.489Z,9.90
2022-11-15T20:50:42.985Z,9.90
2022-11-15T20:54:08.904Z,9.90
2022-11-15T20:57:30.855Z,9.90
2022-11-15T21:00:55.117Z,9.90
2022-11-15T21:04:17.091Z,9.90
2022-11-15T21:07:39.126Z,9.90
2022-11-15T21:11:02.099Z,9.80
2022-11-15T21:14:23.675Z,9.80
2022-11-15T21:17:45.249Z,9.80
2022-11-15T21:21:06.921Z,9.80
2022-11-15T21:24:28.490Z,9.80
2022-11-15T21:27:52.005Z,9.80
2022-11-15T21:31:13.614Z,9.80
2022-11-15T21:34:35.474Z,9.80
2022-11-15T21:37:57.379Z,9.80
2022-11-15T21:41:19.113Z,9.90
2022-11-15T21:44:42.499Z,9.80
2022-11-15T21:48:04.416Z,9.90
2022-11-15T21:51:25.976Z,9.90
2022-11-15T21:54:47.528Z,9.80
2022-11-15T21:58:09.073Z,9.80
2022-11-15T22:01:32.040Z,9.80
2022-11-15T22:04:53.639Z,9.80
2022-11-15T22:08:15.197Z,9.80
2022-11-15T22:11:36.762Z,9.80
2022-11-15T22:14:58.357Z,9.80
2022-11-15T22:18:26.190Z,9.80
2022-11-15T22:21:48.230Z,9.80
2022-11-15T22:25:09.773Z,9.80
2022-11-15T22:28:31.711Z,9.80
2022-11-15T22:31:53.576Z,9.80
2022-11-15T22:35:16.552Z,9.80
2022-11-15T22:38:38.165Z,9.80
2022-11-15T22:41:59.731Z,9.80
2022-11-15T22:45:21.292Z,9.80
2022-11-15T22:48:43.305Z,9.80
2022-11-15T22:52:06.332Z,9.80
2022-11-15T22:55:27.918Z,9.80
2022-11-15T22:58:49.478Z,9.80
2022-11-15T23:02:11.034Z,9.80
2022-11-15T23:05:32.670Z,9.70
2022-11-15T23:08:55.587Z,9.70
2022-11-15T23:12:17.155Z,9.70
2022-11-15T23:15:38.751Z,9.70
2022-11-15T23:19:01.516Z,9.70
2022-11-15T23:22:23.124Z,9.70
2022-11-15T23:25:46.130Z,9.60
2022-11-15T23:29:08.787Z,9.60
2022-11-15T23:32:30.381Z,9.60
2022-11-15T23:35:53.395Z,9.60
2022-11-15T23:39:15.063Z,9.60
2022-11-15T23:42:37.984Z,9.60
2022-11-15T23:45:59.919Z,9.60
2022-11-15T23:49:21.577Z,9.60
2022-11-15T23:52:43.166Z,9.60
2022-11-15T23:56:06.343Z,9.60
2022-11-15T23:59:29.286Z,9.60
